Time;durP1;ratioP1;P1;durP2;ratioP2;P2;SDS_P1;SDS_P2;PMS_P1;PMS_P2;Temp;Humidity;BMP_temperature;BMP_pressure;BME280_temperature;BME280_humidity;BME280_pressure;Samples;Min_cycle;Max_cycle;Signal;HPM_P1;HPM_P2
2023/06/14 00:01:53;;;;;;;11.27;5.15;;;20.70;99.90;;;;;;5093165;28;20197;-50
2023/06/14 00:04:20;;;;;;;11.30;5.13;;;20.70;99.90;;;;;;5093455;28;20173;-51
2023/06/14 00:06:46;;;;;;;6.03;5.00;;;20.70;99.90;;;;;;5093059;28;20219;-51
2023/06/14 00:09:17;;;;;;;7.72;4.57;;;20.90;99.90;;;;;;5092742;28;20221;-51
2023/06/14 00:11:43;;;;;;;5.05;4.32;;;20.60;99.90;;;;;;5093389;28;20208;-51
2023/06/14 00:14:09;;;;;;;6.22;4.95;;;20.50;99.90;;;;;;5092815;28;20636;-50
2023/06/14 00:16:35;;;;;;;6.40;4.90;;;20.50;99.90;;;;;;5093245;28;20166;-50
2023/06/14 00:19:03;;;;;;;5.63;4.95;;;20.50;99.90;;;;;;5093160;28;20230;-51
2023/06/14 00:21:29;;;;;;;6.07;4.97;;;20.50;99.90;;;;;;5092111;28;20205;-53
2023/06/14 00:23:55;;;;;;;6.75;4.45;;;20.40;99.90;;;;;;5072597;28;20178;-51
2023/06/14 00:26:21;;;;;;;8.18;4.60;;;20.40;99.90;;;;;;5055389;28;20201;-51
2023/06/14 00:28:46;;;;;;;6.05;5.00;;;20.30;99.90;;;;;;5072771;28;20198;-51
2023/06/14 00:31:12;;;;;;;5.90;4.63;;;20.30;99.90;;;;;;5073164;28;20165;-49
2023/06/14 00:33:38;;;;;;;5.10;4.45;;;20.50;99.90;;;;;;5072813;28;20257;-49
2023/06/14 00:36:03;;;;;;;8.10;4.70;;;20.40;99.90;;;;;;5072674;28;20628;-50
2023/06/14 00:38:29;;;;;;;7.68;5.00;;;20.30;99.90;;;;;;5072685;28;20542;-49
2023/06/14 00:40:54;;;;;;;5.88;5.25;;;20.60;99.90;;;;;;5072562;28;20162;-49
2023/06/14 00:43:20;;;;;;;6.38;4.93;;;20.40;99.90;;;;;;5072817;28;20213;-49
2023/06/14 00:45:46;;;;;;;6.15;4.88;;;20.60;99.90;;;;;;5054568;28;20172;-49
2023/06/14 00:48:13;;;;;;;5.50;4.30;;;20.10;99.90;;;;;;5072690;28;20263;-49
2023/06/14 00:50:41;;;;;;;5.97;4.65;;;20.10;99.90;;;;;;5072358;28;20507;-49
2023/06/14 00:53:07;;;;;;;9.48;4.82;;;19.80;99.90;;;;;;5072262;28;20641;-49
2023/06/14 00:55:32;;;;;;;5.30;4.80;;;20.10;99.90;;;;;;5072298;28;20251;-50
2023/06/14 00:57:58;;;;;;;8.48;4.70;;;19.60;99.90;;;;;;5072321;28;20180;-49
2023/06/14 01:00:24;;;;;;;7.25;5.13;;;20.10;99.90;;;;;;5072154;28;20177;-50
2023/06/14 01:02:50;;;;;;;6.15;4.43;;;20.00;99.90;;;;;;5072504;28;20205;-50
2023/06/14 01:05:17;;;;;;;7.45;5.20;;;20.10;99.90;;;;;;5072078;28;20174;-50
2023/06/14 01:08:06;;;;;;;5.53;5.00;;;20.10;99.90;;;;;;5053941;28;20271;-50
2023/06/14 01:10:59;;;;;;;9.18;5.07;;;19.90;99.90;;;;;;5072285;28;20182;-49
2023/06/14 01:13:34;;;;;;;7.40;5.25;;;19.80;99.90;;;;;;5071921;28;20174;-49
2023/06/14 01:16:00;;;;;;;6.13;4.72;;;20.00;99.90;;;;;;5072198;28;20173;-49
2023/06/14 01:18:29;;;;;;;7.00;4.70;;;20.00;99.90;;;;;;5071754;28;20739;-49
2023/06/14 01:20:55;;;;;;;7.22;4.95;;;20.10;99.90;;;;;;5071830;28;20716;-49
2023/06/14 01:23:22;;;;;;;9.30;5.60;;;20.10;99.90;;;;;;5072144;28;20282;-49
2023/06/14 01:25:52;;;;;;;6.88;4.75;;;19.60;99.90;;;;;;5072198;28;20207;-49
2023/06/14 01:28:20;;;;;;;7.60;5.40;;;19.90;99.90;;;;;;5072426;28;20231;-49
2023/06/14 01:30:48;;;;;;;7.65;4.85;;;20.00;99.90;;;;;;5071684;28;20201;-50
2023/06/14 01:33:22;;;;;;;5.38;4.65;;;19.90;99.90;;;;;;5071382;28;20170;-50
2023/06/14 01:35:50;;;;;;;6.40;5.20;;;19.80;99.90;;;;;;5072178;28;20186;-49
2023/06/14 01:38:19;;;;;;;5.70;5.10;;;19.70;99.90;;;;;;5071595;28;20173;-49
2023/06/14 01:40:46;;;;;;;7.43;5.20;;;19.70;99.90;;;;;;5071846;28;20261;-49
2023/06/14 01:43:14;;;;;;;6.90;4.78;;;19.10;99.90;;;;;;5071535;28;20197;-49
2023/06/14 01:45:42;;;;;;;7.07;4.53;;;19.40;99.90;;;;;;5071838;28;20194;-49
2023/06/14 01:48:08;;;;;;;7.47;5.10;;;19.30;99.90;;;;;;5071530;28;20173;-49
2023/06/14 01:50:34;;;;;;;5.50;4.55;;;19.40;99.90;;;;;;5071442;28;20161;-51
2023/06/14 01:53:00;;;;;;;6.50;5.35;;;19.50;99.90;;;;;;5071510;28;20204;-51
2023/06/14 01:55:25;;;;;;;8.20;5.72;;;19.20;99.90;;;;;;5071708;28;20587;-50
2023/06/14 01:57:52;;;;;;;7.00;4.97;;;;;;;;;;5070712;28;20193;-49
2023/06/14 02:00:18;;;;;;;6.70;5.10;;;19.30;99.90;;;;;;5071659;28;20208;-50
2023/06/14 02:02:44;;;;;;;9.07;5.20;;;19.20;99.90;;;;;;5070674;28;20245;-50
2023/06/14 02:05:10;;;;;;;10.68;5.25;;;19.10;99.90;;;;;;5070266;28;20633;-49
2023/06/14 02:07:36;;;;;;;5.68;5.10;;;;;;;;;;5069596;28;20271;-49
2023/06/14 02:10:02;;;;;;;7.22;5.10;;;19.40;99.90;;;;;;5071199;28;20625;-49
2023/06/14 02:12:28;;;;;;;7.13;4.30;;;19.20;99.90;;;;;;5071102;28;20309;-49
2023/06/14 02:14:54;;;;;;;8.00;5.28;;;19.40;99.90;;;;;;5070538;28;20788;-49
2023/06/14 02:17:20;;;;;;;6.45;4.70;;;18.90;99.90;;;;;;5071617;28;20499;-49
2023/06/14 02:19:46;;;;;;;6.63;5.10;;;;;;;;;;5070760;28;20208;-49
2023/06/14 02:22:11;;;;;;;5.28;4.78;;;19.00;99.90;;;;;;5070761;28;20206;-50
2023/06/14 02:24:37;;;;;;;5.57;5.05;;;18.80;99.90;;;;;;5070552;28;20166;-49
2023/06/14 02:27:03;;;;;;;10.45;5.15;;;19.10;99.90;;;;;;5070807;28;20170;-49
2023/06/14 02:29:29;;;;;;;7.35;4.75;;;18.90;99.90;;;;;;5070798;28;20197;-49
2023/06/14 02:31:54;;;;;;;6.22;4.95;;;18.90;99.90;;;;;;5074021;28;20158;-49
2023/06/14 02:34:21;;;;;;;5.43;4.93;;;18.80;99.90;;;;;;5075297;28;20174;-49
2023/06/14 02:36:47;;;;;;;8.02;5.45;;;18.70;99.90;;;;;;5075460;28;20174;-49
2023/06/14 02:39:13;;;;;;;9.88;5.13;;;18.30;99.90;;;;;;5074888;28;20177;-49
2023/06/14 02:41:39;;;;;;;6.50;5.13;;;;;;;;;;5074502;28;20273;-49
2023/06/14 02:44:06;;;;;;;6.93;5.30;;;18.10;99.90;;;;;;5074041;28;20174;-49
2023/06/14 02:46:31;;;;;;;11.88;5.18;;;18.30;99.90;;;;;;5074863;28;20653;-49
2023/06/14 02:48:57;;;;;;;11.25;5.55;;;18.00;99.90;;;;;;5056462;28;20208;-49
2023/06/14 02:51:22;;;;;;;9.35;5.60;;;18.00;99.90;;;;;;5074611;28;20162;-49
2023/06/14 02:53:48;;;;;;;5.75;4.82;;;18.00;99.90;;;;;;5074869;28;20177;-49
2023/06/14 02:56:13;;;;;;;10.52;5.95;;;18.00;99.90;;;;;;5074618;28;20162;-49
2023/06/14 02:58:40;;;;;;;7.03;5.70;;;17.90;99.90;;;;;;5074067;28;20174;-49
2023/06/14 03:01:07;;;;;;;6.53;5.60;;;17.80;99.90;;;;;;5074237;28;20170;-49
2023/06/14 03:03:33;;;;;;;7.55;5.68;;;17.90;99.90;;;;;;5074066;28;20611;-49
2023/06/14 03:06:00;;;;;;;7.18;5.55;;;18.50;99.90;;;;;;5074280;28;20530;-49
2023/06/14 03:08:28;;;;;;;9.50;6.20;;;18.40;99.90;;;;;;5074209;28;20571;-49
2023/06/14 03:10:56;;;;;;;7.18;4.97;;;17.90;99.90;;;;;;5074212;28;20168;-48
2023/06/14 03:13:21;;;;;;;7.55;4.70;;;18.20;99.90;;;;;;5073938;28;20658;-49
2023/06/14 03:15:50;;;;;;;5.85;5.15;;;18.20;99.90;;;;;;5074381;28;20214;-49
2023/06/14 03:18:16;;;;;;;9.57;5.47;;;17.80;99.90;;;;;;5073709;28;20173;-49
2023/06/14 03:20:42;;;;;;;9.88;5.43;;;17.80;99.90;;;;;;5074007;28;20805;-49
2023/06/14 03:23:08;;;;;;;6.78;6.03;;;;;;;;;;5073425;28;20298;-48
2023/06/14 03:25:35;;;;;;;7.90;5.85;;;18.00;99.90;;;;;;5073427;28;20207;-49
2023/06/14 03:28:02;;;;;;;8.82;5.28;;;18.00;99.90;;;;;;5073900;28;20178;-47
2023/06/14 03:30:27;;;;;;;8.32;5.68;;;18.00;99.90;;;;;;5073906;28;20188;-48
2023/06/14 03:32:55;;;;;;;6.93;5.35;;;18.20;99.90;;;;;;5073610;28;20681;-47
2023/06/14 03:35:21;;;;;;;8.07;5.63;;;18.10;99.90;;;;;;5074197;28;20522;-49
2023/06/14 03:37:47;;;;;;;10.13;5.90;;;18.10;99.90;;;;;;5074184;28;20173;-48
2023/06/14 03:40:15;;;;;;;14.50;5.57;;;18.10;99.90;;;;;;5073749;28;20162;-48
2023/06/14 03:42:40;;;;;;;6.43;5.78;;;18.10;99.90;;;;;;5073607;28;20802;-50
2023/06/14 03:45:06;;;;;;;9.40;5.65;;;18.20;99.90;;;;;;5073004;28;20166;-48
2023/06/14 03:47:32;;;;;;;5.97;5.00;;;18.10;99.90;;;;;;5054787;28;20210;-48
2023/06/14 03:49:58;;;;;;;9.57;5.72;;;18.20;99.90;;;;;;5073173;28;20282;-49
2023/06/14 03:52:24;;;;;;;12.20;5.93;;;18.10;99.90;;;;;;5072928;28;20173;-48
2023/06/14 03:54:51;;;;;;;9.55;5.18;;;18.00;99.90;;;;;;5072919;28;20162;-49
2023/06/14 03:57:16;;;;;;;6.80;5.50;;;18.00;99.90;;;;;;5055995;28;20170;-48
2023/06/14 03:59:42;;;;;;;10.02;5.85;;;18.10;99.90;;;;;;5073227;28;20644;-50
2023/06/14 04:02:09;;;;;;;9.20;5.55;;;18.10;99.90;;;;;;5073301;28;20327;-48
2023/06/14 04:04:35;;;;;;;7.60;5.47;;;17.90;99.90;;;;;;5073326;28;20220;-49
2023/06/14 04:07:03;;;;;;;6.90;5.53;;;18.30;99.90;;;;;;5072831;28;20182;-48
2023/06/14 04:09:29;;;;;;;8.98;6.15;;;18.10;99.90;;;;;;5073495;28;20178;-49
2023/06/14 04:11:55;;;;;;;7.35;5.18;;;18.20;99.90;;;;;;5073112;28;20220;-48
2023/06/14 04:14:21;;;;;;;11.02;5.82;;;18.20;99.90;;;;;;5073309;28;20178;-48
2023/06/14 04:16:48;;;;;;;7.20;4.88;;;18.20;99.90;;;;;;5073421;28;20174;-48
2023/06/14 04:19:14;;;;;;;7.63;6.05;;;18.30;99.90;;;;;;5072946;28;20196;-48
2023/06/14 04:21:40;;;;;;;6.88;5.90;;;18.30;99.90;;;;;;5073131;28;20194;-49
2023/06/14 04:24:06;;;;;;;10.98;6.10;;;18.30;99.90;;;;;;5072356;28;20219;-49
2023/06/14 04:26:33;;;;;;;7.10;5.68;;;18.30;99.90;;;;;;5072817;28;20170;-48
2023/06/14 04:29:02;;;;;;;7.28;5.93;;;18.20;99.90;;;;;;5073036;28;20184;-48
2023/06/14 04:31:37;;;;;;;9.65;6.32;;;18.30;99.90;;;;;;5072698;28;20188;-48
2023/06/14 04:34:05;;;;;;;9.63;6.40;;;18.60;99.90;;;;;;5072888;28;20177;-48
2023/06/14 04:36:34;;;;;;;10.40;6.03;;;18.80;99.90;;;;;;5072830;28;20170;-48
2023/06/14 04:39:00;;;;;;;8.55;5.68;;;19.10;99.90;;;;;;5072687;28;20247;-48
2023/06/14 04:41:30;;;;;;;13.63;5.88;;;19.30;99.90;;;;;;5072465;28;20173;-48
2023/06/14 04:44:01;;;;;;;10.27;5.90;;;19.50;99.90;;;;;;5072530;28;20166;-48
2023/06/14 04:46:31;;;;;;;8.80;6.07;;;19.40;99.90;;;;;;5072481;28;20165;-48
2023/06/14 04:48:57;;;;;;;11.15;6.47;;;19.70;99.90;;;;;;5054499;28;20197;-48
2023/06/14 04:51:29;;;;;;;9.27;6.05;;;19.90;99.90;;;;;;5072242;28;20533;-48
2023/06/14 04:53:58;;;;;;;9.75;6.47;;;20.10;99.90;;;;;;5071868;28;20186;-48
2023/06/14 04:56:25;;;;;;;10.20;6.20;;;19.80;99.90;;;;;;5072195;28;20173;-48
2023/06/14 04:58:50;;;;;;;12.15;6.70;;;19.70;99.90;;;;;;5071501;28;20256;-49
2023/06/14 05:01:16;;;;;;;7.80;6.18;;;20.00;99.90;;;;;;5072263;28;20245;-47
2023/06/14 05:03:44;;;;;;;8.43;6.13;;;20.40;99.90;;;;;;5072012;28;20206;-48
2023/06/14 05:06:11;;;;;;;9.90;6.07;;;20.30;99.90;;;;;;5072314;28;20980;-47
2023/06/14 05:08:37;;;;;;;9.63;5.93;;;20.50;99.90;;;;;;5071875;28;20267;-48
2023/06/14 05:11:02;;;;;;;7.45;6.43;;;20.40;99.90;;;;;;5071717;28;20166;-48
2023/06/14 05:13:28;;;;;;;10.38;6.40;;;20.40;99.90;;;;;;5072104;28;20181;-48
2023/06/14 05:15:54;;;;;;;11.25;7.47;;;20.60;99.90;;;;;;5071842;28;20698;-48
2023/06/14 05:18:20;;;;;;;7.30;4.85;;;;;;;;;;5071965;28;20173;-49
2023/06/14 05:20:46;;;;;;;10.85;5.55;;;20.70;99.90;;;;;;5072131;28;20532;-48
2023/06/14 05:23:14;;;;;;;8.55;5.70;;;;;;;;;;5071729;28;20232;-48
2023/06/14 05:25:43;;;;;;;7.95;6.53;;;21.10;99.90;;;;;;5072031;28;20177;-48
2023/06/14 05:28:09;;;;;;;14.32;8.85;;;21.00;99.90;;;;;;5072070;28;20172;-48
2023/06/14 05:30:35;;;;;;;7.40;5.28;;;20.90;99.90;;;;;;5071695;28;20531;-48
2023/06/14 05:33:01;;;;;;;10.18;5.65;;;21.20;99.90;;;;;;5071762;28;20166;-48
2023/06/14 05:35:26;;;;;;;12.43;6.60;;;20.90;99.90;;;;;;5071747;28;20253;-48
2023/06/14 05:37:53;;;;;;;5.75;4.40;;;21.00;99.90;;;;;;5071881;28;20498;-49
2023/06/14 05:40:19;;;;;;;10.75;7.50;;;21.40;99.90;;;;;;5071932;28;20641;-49
2023/06/14 05:42:45;;;;;;;8.20;5.03;;;21.20;99.90;;;;;;5071720;28;20212;-48
2023/06/14 05:45:11;;;;;;;6.75;4.50;;;21.00;99.90;;;;;;5071582;28;20166;-48
2023/06/14 05:47:36;;;;;;;5.22;4.35;;;21.50;99.90;;;;;;5071489;28;20167;-48
2023/06/14 05:50:02;;;;;;;7.55;5.00;;;21.20;99.90;;;;;;5071518;28;20173;-48
2023/06/14 05:52:28;;;;;;;7.30;4.80;;;21.40;99.90;;;;;;5071885;28;20166;-48
2023/06/14 05:54:53;;;;;;;5.60;4.50;;;21.30;99.90;;;;;;5071424;28;20166;-48
2023/06/14 05:57:19;;;;;;;12.95;4.63;;;21.20;99.90;;;;;;5071846;28;20174;-48
2023/06/14 05:59:44;;;;;;;5.43;4.25;;;21.10;99.90;;;;;;5071485;28;20532;-48
2023/06/14 06:02:10;;;;;;;9.85;5.43;;;21.40;99.90;;;;;;5071249;28;20676;-48
2023/06/14 06:04:36;;;;;;;6.50;4.10;;;21.30;99.90;;;;;;5071607;28;20174;-48
2023/06/14 06:07:01;;;;;;;5.38;4.38;;;21.20;99.90;;;;;;5074547;28;20177;-48
2023/06/14 06:09:27;;;;;;;7.75;4.28;;;;;;;;;;5075424;28;20181;-48
2023/06/14 06:11:53;;;;;;;7.10;3.42;;;21.00;99.90;;;;;;5075409;28;20546;-48
2023/06/14 06:14:18;;;;;;;6.75;4.10;;;21.50;99.90;;;;;;5075950;28;20596;-48
2023/06/14 06:16:44;;;;;;;6.90;4.82;;;21.30;99.90;;;;;;5074972;28;20548;-48
2023/06/14 06:19:10;;;;;;;9.98;4.00;;;21.60;99.90;;;;;;5074830;28;20227;-48
2023/06/14 06:21:35;;;;;;;5.80;4.05;;;21.50;99.90;;;;;;5057301;28;20166;-50
2023/06/14 06:24:03;;;;;;;17.05;3.85;;;21.50;99.90;;;;;;5075165;28;20598;-49
2023/06/14 06:26:29;;;;;;;7.30;4.10;;;21.70;99.90;;;;;;5074056;28;20645;-48
2023/06/14 06:28:55;;;;;;;5.32;3.40;;;21.60;99.90;;;;;;5075061;28;20166;-49
2023/06/14 06:31:22;;;;;;;3.88;3.47;;;21.70;99.90;;;;;;5075226;28;20174;-48
2023/06/14 06:33:47;;;;;;;7.00;3.70;;;21.80;99.90;;;;;;5075663;28;20208;-51
2023/06/14 06:36:13;;;;;;;5.55;3.92;;;21.90;99.90;;;;;;5074927;28;20194;-51
2023/06/14 06:38:39;;;;;;;5.30;3.80;;;21.80;99.90;;;;;;5074797;28;20170;-49
2023/06/14 06:41:04;;;;;;;4.38;3.75;;;21.90;99.00;;;;;;5075014;28;20162;-49
2023/06/14 06:43:30;;;;;;;5.50;4.05;;;22.00;98.60;;;;;;5074727;28;20213;-51
2023/06/14 06:45:55;;;;;;;3.95;3.55;;;22.20;97.50;;;;;;5074677;28;20173;-49
2023/06/14 06:48:21;;;;;;;11.13;4.30;;;22.20;97.90;;;;;;5074434;28;20162;-48
2023/06/14 06:50:46;;;;;;;4.13;3.72;;;22.10;98.10;;;;;;5075228;28;20171;-51
2023/06/14 06:53:12;;;;;;;7.00;3.42;;;21.90;95.90;;;;;;5074565;28;20170;-49
2023/06/14 06:55:37;;;;;;;5.20;3.70;;;22.20;95.50;;;;;;5074627;28;20182;-50
2023/06/14 06:58:05;;;;;;;4.75;3.38;;;22.20;94.00;;;;;;5074498;28;20166;-51
2023/06/14 07:00:30;;;;;;;4.25;3.75;;;22.10;94.00;;;;;;5074661;28;20235;-49
2023/06/14 07:02:56;;;;;;;5.70;3.28;;;22.50;93.30;;;;;;5074674;28;20669;-49
2023/06/14 07:05:22;;;;;;;7.72;3.42;;;22.60;92.90;;;;;;5074297;28;20665;-49
2023/06/14 07:07:48;;;;;;;4.72;3.03;;;22.50;93.30;;;;;;5053442;28;20253;-50
2023/06/14 07:10:14;;;;;;;6.88;3.58;;;22.70;93.40;;;;;;5054347;28;20527;-49
2023/06/14 07:12:39;;;;;;;5.05;3.47;;;22.70;92.40;;;;;;5054299;28;20171;-49
2023/06/14 07:15:08;;;;;;;6.03;2.88;;;22.70;91.90;;;;;;5054259;28;20241;-49
2023/06/14 07:17:34;;;;;;;4.63;2.97;;;22.60;90.70;;;;;;5053731;28;20177;-49
2023/06/14 07:20:05;;;;;;;3.30;2.60;;;23.10;90.40;;;;;;5054150;28;20167;-49
2023/06/14 07:22:30;;;;;;;7.57;3.17;;;22.70;90.30;;;;;;5052693;28;20210;-50
2023/06/14 07:24:56;;;;;;;3.38;2.95;;;23.20;90.60;;;;;;5053627;28;20158;-49
2023/06/14 07:27:21;;;;;;;6.60;3.17;;;22.90;89.00;;;;;;5053636;28;20167;-49
2023/06/14 07:29:47;;;;;;;5.20;3.40;;;23.30;89.90;;;;;;5054063;28;20258;-49
2023/06/14 07:32:12;;;;;;;4.82;3.10;;;23.50;89.70;;;;;;5053542;28;20618;-48
2023/06/14 07:34:38;;;;;;;3.20;2.75;;;23.30;89.80;;;;;;5053518;28;20669;-49
2023/06/14 07:37:03;;;;;;;6.97;3.10;;;23.50;89.80;;;;;;5053590;28;20240;-49
2023/06/14 07:39:29;;;;;;;4.65;3.30;;;;;;;;;;5053399;28;20189;-50
2023/06/14 07:41:55;;;;;;;4.50;2.80;;;23.60;89.30;;;;;;5053496;28;20195;-49
2023/06/14 07:44:20;;;;;;;3.33;3.03;;;23.50;85.90;;;;;;5051655;28;20186;-49
2023/06/14 07:46:49;;;;;;;6.22;2.80;;;;;;;;;;5052125;28;20174;-49
2023/06/14 07:49:14;;;;;;;7.90;3.38;;;23.90;85.00;;;;;;5052032;28;20258;-50
2023/06/14 07:51:40;;;;;;;5.38;3.20;;;23.80;87.00;;;;;;5051626;28;20270;-49
2023/06/14 07:54:07;;;;;;;2.83;2.50;;;24.00;85.90;;;;;;5051609;28;20171;-49
2023/06/14 07:56:33;;;;;;;7.85;3.00;;;;;;;;;;5051757;28;20197;-49
2023/06/14 07:58:59;;;;;;;4.25;3.10;;;24.30;83.10;;;;;;5053202;28;20194;-49
2023/06/14 08:01:25;;;;;;;3.38;2.55;;;24.20;82.10;;;;;;5053480;28;20197;-49
2023/06/14 08:03:51;;;;;;;3.72;2.45;;;24.30;82.80;;;;;;5053372;28;20263;-49
2023/06/14 08:06:16;;;;;;;3.50;2.50;;;23.90;81.90;;;;;;5053810;28;20170;-49
2023/06/14 08:08:42;;;;;;;8.57;2.83;;;24.30;81.40;;;;;;5051867;28;20317;-49
2023/06/14 08:11:07;;;;;;;4.72;2.20;;;24.30;80.90;;;;;;5053251;28;20623;-49
2023/06/14 08:13:33;;;;;;;3.70;2.25;;;24.20;80.50;;;;;;5051927;28;20630;-49
2023/06/14 08:16:00;;;;;;;5.70;2.33;;;24.30;79.90;;;;;;5053103;28;20691;-49
2023/06/14 08:18:25;;;;;;;5.38;2.78;;;24.80;79.40;;;;;;5052951;28;20657;-50
2023/06/14 08:20:52;;;;;;;3.72;2.28;;;24.80;78.30;;;;;;5053060;28;20171;-49
2023/06/14 08:23:18;;;;;;;4.07;2.47;;;25.10;78.50;;;;;;5053554;28;20611;-49
2023/06/14 08:25:45;;;;;;;3.13;2.10;;;25.10;79.00;;;;;;5053629;28;20223;-49
2023/06/14 08:28:10;;;;;;;2.20;2.00;;;25.10;74.90;;;;;;5051987;28;20166;-49
2023/06/14 08:30:36;;;;;;;3.05;1.90;;;25.10;73.50;;;;;;5052864;28;20167;-49
2023/06/14 08:33:02;;;;;;;1.80;1.70;;;24.90;73.20;;;;;;5052845;28;20183;-49
2023/06/14 08:35:28;;;;;;;5.38;2.00;;;25.30;73.80;;;;;;5052752;28;20169;-49
2023/06/14 08:37:53;;;;;;;5.15;2.10;;;25.30;74.80;;;;;;5052683;28;20175;-49
2023/06/14 08:40:20;;;;;;;2.97;1.60;;;;;;;;;;5052708;28;20190;-49
2023/06/14 08:42:51;;;;;;;2.10;1.88;;;25.20;70.40;;;;;;5052884;28;20195;-49
2023/06/14 08:45:17;;;;;;;1.77;1.67;;;25.40;70.10;;;;;;5052926;28;20520;-49
2023/06/14 08:47:43;;;;;;;2.10;1.90;;;25.50;68.80;;;;;;5052436;28;20174;-49
2023/06/14 08:50:09;;;;;;;2.55;1.77;;;25.60;67.10;;;;;;5052516;28;20744;-49
2023/06/14 08:52:40;;;;;;;3.05;1.88;;;25.40;65.40;;;;;;5052470;28;20181;-49
2023/06/14 08:55:08;;;;;;;2.50;1.75;;;25.00;67.10;;;;;;5052430;28;20641;-49
2023/06/14 08:57:37;;;;;;;4.05;2.10;;;25.60;66.70;;;;;;5052605;28;20265;-49
2023/06/14 09:00:12;;;;;;;6.22;1.92;;;25.40;65.10;;;;;;5051434;28;20197;-49
2023/06/14 09:02:43;;;;;;;2.30;2.00;;;25.60;65.80;;;;;;5052101;28;20575;-49
2023/06/14 09:05:13;;;;;;;4.88;2.13;;;25.70;64.40;;;;;;5052414;28;20178;-49
2023/06/14 09:07:40;;;;;;;2.33;1.90;;;26.10;65.40;;;;;;5058556;28;20228;-49
2023/06/14 09:10:10;;;;;;;2.67;2.38;;;26.00;66.30;;;;;;5072008;28;20177;-49
2023/06/14 09:12:36;;;;;;;3.25;2.05;;;25.80;64.50;;;;;;5071941;28;20649;-49
2023/06/14 09:15:05;;;;;;;2.83;1.55;;;25.70;63.60;;;;;;5054524;28;20212;-50
2023/06/14 09:17:33;;;;;;;2.97;2.33;;;25.50;64.00;;;;;;5072346;28;20178;-49
2023/06/14 09:19:59;;;;;;;3.25;2.05;;;25.60;66.00;;;;;;5065284;28;20664;-51
2023/06/14 09:22:25;;;;;;;4.30;2.38;;;25.20;65.30;;;;;;5090252;28;20201;-51
2023/06/14 09:24:50;;;;;;;2.42;2.22;;;25.70;66.50;;;;;;5090185;28;20556;-51
2023/06/14 09:27:16;;;;;;;3.25;2.00;;;25.60;63.90;;;;;;5090598;28;20521;-51
2023/06/14 09:29:42;;;;;;;2.20;1.98;;;26.00;64.40;;;;;;5090163;28;20169;-52
2023/06/14 09:32:08;;;;;;;2.15;1.60;;;23.30;62.10;;;;;;5090243;28;20169;-51
2023/06/14 09:34:34;;;;;;;3.45;2.47;;;26.00;65.30;;;;;;5071942;28;20273;-51
2023/06/14 09:37:00;;;;;;;4.50;2.33;;;26.10;65.60;;;;;;5090113;28;20227;-51
2023/06/14 09:39:27;;;;;;;4.60;2.30;;;26.30;65.10;;;;;;5089838;28;20158;-51
2023/06/14 09:41:52;;;;;;;3.58;2.45;;;26.20;65.70;;;;;;5089935;28;20197;-51
2023/06/14 09:44:20;;;;;;;2.65;2.33;;;25.80;66.80;;;;;;5090362;28;20253;-51
2023/06/14 09:46:46;;;;;;;6.10;2.25;;;22.30;64.10;;;;;;5090166;28;20685;-51
2023/06/14 09:49:12;;;;;;;4.18;2.17;;;25.70;66.80;;;;;;5089791;28;20169;-52
2023/06/14 09:51:43;;;;;;;6.28;2.33;;;25.90;67.10;;;;;;5089978;28;20178;-52
2023/06/14 09:54:16;;;;;;;4.82;2.55;;;25.80;67.90;;;;;;5089878;28;20204;-52
2023/06/14 09:56:44;;;;;;;4.00;2.25;;;25.60;68.20;;;;;;5089504;28;20234;-51
2023/06/14 09:59:12;;;;;;;2.63;2.03;;;26.10;67.60;;;;;;5089834;28;20209;-52
2023/06/14 10:01:42;;;;;;;4.43;2.10;;;26.00;67.90;;;;;;5089527;28;20684;-51
2023/06/14 10:04:10;;;;;;;2.58;1.80;;;26.00;67.30;;;;;;5071783;28;20173;-52
2023/06/14 10:06:48;;;;;;;5.68;2.13;;;26.40;66.20;;;;;;5089719;28;20169;-52
2023/06/14 10:09:14;;;;;;;3.13;1.90;;;25.70;67.10;;;;;;5089872;28;20217;-52
2023/06/14 10:11:43;;;;;;;4.32;2.13;;;25.60;66.60;;;;;;5089892;28;20165;-51
2023/06/14 10:14:11;;;;;;;3.08;2.00;;;25.60;66.20;;;;;;5089831;28;20510;-51
2023/06/14 10:17:01;;;;;;;1.80;1.70;;;26.00;67.50;;;;;;5089670;28;20161;-51
2023/06/14 10:19:44;;;;;;;4.70;2.15;;;25.80;67.40;;;;;;5089642;28;20623;-51
2023/06/14 10:22:12;;;;;;;2.42;1.67;;;26.10;67.10;;;;;;5071533;28;20221;-52
2023/06/14 10:24:41;;;;;;;2.15;1.92;;;26.00;67.40;;;;;;5089472;28;20181;-52
2023/06/14 10:27:11;;;;;;;2.70;2.10;;;26.50;69.80;;;;;;5071642;28;20177;-51
2023/06/14 10:29:55;;;;;;;3.78;2.03;;;26.30;69.80;;;;;;5089001;28;20172;-51
2023/06/14 10:32:23;;;;;;;4.28;2.10;;;26.50;70.90;;;;;;5089620;28;20166;-52
2023/06/14 10:35:01;;;;;;;2.47;1.83;;;26.50;71.00;;;;;;5089505;28;20173;-51
2023/06/14 10:37:27;;;;;;;3.28;1.80;;;26.50;71.30;;;;;;5089819;28;20234;-51
2023/06/14 10:39:53;;;;;;;2.10;1.90;;;26.20;70.20;;;;;;5089617;28;20173;-52
2023/06/14 10:42:19;;;;;;;3.55;1.85;;;26.10;70.50;;;;;;5089286;28;20216;-52
2023/06/14 10:44:55;;;;;;;1.90;1.52;;;26.10;69.40;;;;;;5089681;28;20694;-52
2023/06/14 10:47:38;;;;;;;1.80;1.70;;;25.80;68.40;;;;;;5089630;28;20547;-52
2023/06/14 10:50:08;;;;;;;2.05;1.85;;;26.30;70.40;;;;;;5089597;28;20173;-52
2023/06/14 10:52:43;;;;;;;3.53;2.10;;;26.30;68.40;;;;;;5091503;28;20577;-51
2023/06/14 10:55:18;;;;;;;3.33;1.90;;;25.90;68.20;;;;;;5093200;28;20173;-52
2023/06/14 10:57:57;;;;;;;6.22;2.00;;;26.20;68.50;;;;;;5093671;28;20183;-52
2023/06/14 11:00:28;;;;;;;2.53;2.00;;;26.20;67.40;;;;;;5092947;28;20214;-52
2023/06/14 11:03:24;;;;;;;3.53;2.20;;;26.30;66.90;;;;;;5092789;28;20692;-52
2023/06/14 11:05:58;;;;;;;3.95;2.25;;;26.20;68.00;;;;;;5092790;28;20161;-52
2023/06/14 11:09:01;;;;;;;3.95;2.20;;;26.50;68.40;;;;;;5092650;28;20225;-52
2023/06/14 11:11:34;;;;;;;2.55;2.05;;;26.40;68.80;;;;;;5092990;28;20165;-52
2023/06/14 11:14:01;;;;;;;3.75;2.03;;;26.60;69.30;;;;;;5092722;28;20168;-52
2023/06/14 11:16:33;;;;;;;5.38;2.38;;;26.90;69.90;;;;;;5092631;28;20218;-52
2023/06/14 11:19:01;;;;;;;3.60;2.28;;;26.80;69.50;;;;;;5092586;28;20698;-51
2023/06/14 11:21:31;;;;;;;3.60;2.53;;;27.10;69.00;;;;;;5092818;28;20169;-51
2023/06/14 11:23:56;;;;;;;3.28;2.17;;;26.60;69.10;;;;;;5092463;28;20208;-51
2023/06/14 11:26:28;;;;;;;4.72;2.13;;;26.30;70.20;;;;;;5092429;28;20165;-52
2023/06/14 11:29:01;;;;;;;4.70;2.00;;;27.40;70.90;;;;;;5092380;28;20543;-52
2023/06/14 11:31:30;;;;;;;3.72;2.00;;;26.90;71.50;;;;;;5092566;28;20165;-51
2023/06/14 11:33:57;;;;;;;6.63;2.20;;;26.70;71.60;;;;;;5074442;28;20520;-52
2023/06/14 11:36:26;;;;;;;2.88;2.20;;;27.20;73.60;;;;;;5092225;28;20263;-52
2023/06/14 11:38:59;;;;;;;3.03;2.08;;;26.90;71.30;;;;;;5092311;28;20173;-52
2023/06/14 11:41:25;;;;;;;18.25;5.93;;;26.90;71.40;;;;;;5092466;28;20382;-52
2023/06/14 11:43:53;;;;;;;4.10;2.28;;;27.10;70.80;;;;;;5092038;28;20320;-51
2023/06/14 11:46:23;;;;;;;8.65;2.75;;;27.30;72.00;;;;;;5092307;28;20258;-51
2023/06/14 11:48:49;;;;;;;9.20;2.28;;;27.30;73.20;;;;;;5092163;28;20172;-51
2023/06/14 11:51:14;;;;;;;5.82;2.42;;;27.60;71.70;;;;;;5092372;28;20172;-51
2023/06/14 11:53:42;;;;;;;2.53;2.17;;;27.70;71.50;;;;;;5091781;28;20658;-51
2023/06/14 11:56:08;;;;;;;4.05;2.30;;;27.60;70.70;;;;;;5091992;28;20580;-52
2023/06/14 11:58:34;;;;;;;4.95;2.65;;;27.20;72.20;;;;;;5092064;28;20278;-51
2023/06/14 12:01:00;;;;;;;5.43;2.28;;;27.70;70.80;;;;;;5092039;28;20192;-51
2023/06/14 12:03:27;;;;;;;2.75;2.38;;;27.40;71.50;;;;;;5091008;28;20219;-51
2023/06/14 12:06:08;;;;;;;3.35;2.30;;;27.70;72.50;;;;;;5091775;28;20187;-51
2023/06/14 12:08:39;;;;;;;8.38;2.30;;;27.60;71.90;;;;;;5091896;28;20228;-51
2023/06/14 12:11:16;;;;;;;6.55;2.40;;;27.50;71.80;;;;;;5091617;28;20164;-52
2023/06/14 12:13:42;;;;;;;2.75;2.30;;;27.50;69.10;;;;;;5091694;28;20191;-51
2023/06/14 12:16:12;;;;;;;3.80;2.20;;;27.00;69.50;;;;;;5091325;28;20200;-51
2023/06/14 12:18:39;;;;;;;3.58;2.70;;;27.40;68.80;;;;;;5091381;28;20285;-51
2023/06/14 12:21:09;;;;;;;3.55;2.63;;;27.90;70.00;;;;;;5089784;28;20173;-52
2023/06/14 12:23:46;;;;;;;4.80;3.13;;;28.10;71.00;;;;;;5091405;28;20204;-51
2023/06/14 12:26:16;;;;;;;3.25;2.35;;;28.00;69.80;;;;;;5091606;28;20191;-51
2023/06/14 12:28:45;;;;;;;3.70;2.50;;;27.80;70.00;;;;;;5091371;28;20165;-51
2023/06/14 12:31:13;;;;;;;3.42;2.25;;;27.70;70.10;;;;;;5090957;28;20169;-51
2023/06/14 12:33:40;;;;;;;2.58;1.92;;;28.00;68.90;;;;;;5091249;28;20180;-52
2023/06/14 12:36:08;;;;;;;4.72;1.80;;;28.00;67.70;;;;;;5090813;28;20668;-51
2023/06/14 12:38:34;;;;;;;2.08;1.95;;;27.80;68.80;;;;;;5091012;28;20173;-50
2023/06/14 12:41:00;;;;;;;2.13;1.95;;;28.40;68.90;;;;;;5090911;28;20230;-51
2023/06/14 12:43:26;;;;;;;3.92;2.30;;;28.30;68.70;;;;;;5072860;28;20341;-52
2023/06/14 12:45:51;;;;;;;2.67;2.35;;;27.70;70.00;;;;;;5090283;28;20211;-51
2023/06/14 12:48:17;;;;;;;4.45;2.83;;;27.50;70.20;;;;;;5090941;28;20176;-51
2023/06/14 12:50:42;;;;;;;2.88;2.50;;;27.20;70.10;;;;;;5090883;28;20684;-51
2023/06/14 12:53:08;;;;;;;2.15;1.83;;;27.30;70.40;;;;;;5090392;28;20218;-51